^^
Saratoga-Weather Station Historical Data
Daily Summary for October 29, 2021 Units:  Metric    English   Both
Daily Weekly Monthly Yearly Custom
  High: Low: Average:
Temperature: 6.3 °C 5.4 °C 5.8 °C
Dew Point: 5.9 °C 5 °C 5.4 °C
Humidity: 97% 97% 97%
Wind Speed: 0km/h 0km/h 0km/h
Wind Gust: 0km/h - -
Wind- -
Pressure: 1013.9 hPa 1013.2 hPa -
Precipitation: 0.0 mm    
Historical Graphs
 
 
Tabular Data for October 29, 2021
Time Temperature Dew Point Pressure Wind Wind Speed Wind Gust Humidity Rainfall Rate (Hourly) solar
00:03 5.9 °C 5.5 °C 1013.9 hPa Calm     97% 0.0 mm 0 W/m2
00:08 5.9 °C 5.5 °C 1013.9 hPa Calm     97% 0.0 mm 0 W/m2
00:13 5.9 °C 5.5 °C 1013.9 hPa Calm     97% 0.0 mm 0 W/m2
00:18 5.9 °C 5.5 °C 1013.9 hPa Calm     97% 0.0 mm 0 W/m2
00:23 6.1 °C 5.7 °C 1013.9 hPa Calm     97% 0.0 mm 0 W/m2
00:28 6 °C 5.6 °C 1013.9 hPa Calm     97% 0.0 mm 0 W/m2
00:33 5.9 °C 5.5 °C 1013.9 hPa Calm     97% 0.0 mm 0 W/m2
00:38 5.8 °C 5.4 °C 1013.9 hPa Calm     97% 0.0 mm 0 W/m2
00:43 5.8 °C 5.4 °C 1013.9 hPa Calm     97% 0.0 mm 0 W/m2
00:48 5.8 °C 5.4 °C 1013.5 hPa Calm     97% 0.0 mm 0 W/m2
00:53 5.9 °C 5.5 °C 1013.5 hPa Calm     97% 0.0 mm 0 W/m2
00:58 6.1 °C 5.7 °C 1013.5 hPa Calm     97% 0.0 mm 0 W/m2
01:03 6.2 °C 5.8 °C 1013.5 hPa Calm     97% 0.0 mm 0 W/m2
01:08 6.3 °C 5.9 °C 1013.5 hPa Calm     97% 0.0 mm 0 W/m2
01:13 6.2 °C 5.8 °C 1013.5 hPa Calm     97% 0.0 mm 0 W/m2
01:18 6.1 °C 5.7 °C 1013.5 hPa Calm     97% 0.0 mm 0 W/m2
01:23 5.9 °C 5.5 °C 1013.5 hPa Calm     97% 0.0 mm 0 W/m2
01:28 5.8 °C 5.4 °C 1013.5 hPa Calm     97% 0.0 mm 0 W/m2
01:33 5.8 °C 5.4 °C 1013.5 hPa Calm     97% 0.0 mm 0 W/m2
01:38 5.9 °C 5.5 °C 1013.5 hPa Calm     97% 0.0 mm 0 W/m2
01:43 6 °C 5.6 °C 1013.5 hPa Calm     97% 0.0 mm 0 W/m2
01:48 6 °C 5.6 °C 1013.5 hPa Calm     97% 0.0 mm 0 W/m2
01:53 5.9 °C 5.5 °C 1013.5 hPa Calm     97% 0.0 mm 0 W/m2
01:58 5.9 °C 5.5 °C 1013.5 hPa Calm     97% 0.0 mm 0 W/m2
02:03 5.8 °C 5.4 °C 1013.5 hPa Calm     97% 0.0 mm 0 W/m2
02:08 5.7 °C 5.3 °C 1013.5 hPa Calm     97% 0.0 mm 0 W/m2
02:13 5.6 °C 5.2 °C 1013.5 hPa Calm     97% 0.0 mm 0 W/m2
02:18 5.6 °C 5.2 °C 1013.5 hPa Calm     97% 0.0 mm 0 W/m2
02:23 5.6 °C 5.2 °C 1013.5 hPa Calm     97% 0.0 mm 0 W/m2
02:28 5.5 °C 5.1 °C 1013.5 hPa Calm     97% 0.0 mm 0 W/m2
02:33 5.5 °C 5.1 °C 1013.2 hPa Calm     97% 0.0 mm 0 W/m2
02:38 5.4 °C 5 °C 1013.2 hPa Calm     97% 0.0 mm 0 W/m2
02:43 5.4 °C 5 °C 1013.2 hPa Calm     97% 0.0 mm 0 W/m2
02:48 5.4 °C 5 °C 1013.2 hPa Calm     97% 0.0 mm 0 W/m2
Juneau County Weather
Compliments of Weather Underground - 2 mb